sensor_id;sensor_type;location;lat;lon;timestamp;temperature;humidity
1021;DHT22;499;42.648;23.270;2023-02-11T00:01:21;-3.70;25.00
1021;DHT22;499;42.648;23.270;2023-02-11T00:03:50;-3.70;24.90
1021;DHT22;499;42.648;23.270;2023-02-11T00:06:17;-3.60;25.10
1021;DHT22;499;42.648;23.270;2023-02-11T00:08:44;-3.70;24.90
1021;DHT22;499;42.648;23.270;2023-02-11T00:11:12;-3.50;24.70
1021;DHT22;499;42.648;23.270;2023-02-11T00:13:42;-3.80;24.80
1021;DHT22;499;42.648;23.270;2023-02-11T00:16:11;-3.80;24.80
1021;DHT22;499;42.648;23.270;2023-02-11T00:18:38;-3.80;24.70
1021;DHT22;499;42.648;23.270;2023-02-11T00:21:07;-3.80;24.90
1021;DHT22;499;42.648;23.270;2023-02-11T00:23:34;-3.80;24.90
1021;DHT22;499;42.648;23.270;2023-02-11T00:26:02;-3.80;24.80
1021;DHT22;499;42.648;23.270;2023-02-11T00:28:29;-3.80;25.10
1021;DHT22;499;42.648;23.270;2023-02-11T00:30:58;-3.60;25.20
1021;DHT22;499;42.648;23.270;2023-02-11T00:33:27;-3.90;25.00
1021;DHT22;499;42.648;23.270;2023-02-11T00:35:54;-3.90;25.10
1021;DHT22;499;42.648;23.270;2023-02-11T00:38:21;-3.90;25.20
1021;DHT22;499;42.648;23.270;2023-02-11T00:40:48;-3.90;25.10
1021;DHT22;499;42.648;23.270;2023-02-11T00:43:15;-3.90;25.20
1021;DHT22;499;42.648;23.270;2023-02-11T00:45:42;-3.90;24.60
1021;DHT22;499;42.648;23.270;2023-02-11T00:48:11;-3.90;24.60
1021;DHT22;499;42.648;23.270;2023-02-11T00:50:38;-3.90;24.50
1021;DHT22;499;42.648;23.270;2023-02-11T00:53:05;-3.70;24.60
1021;DHT22;499;42.648;23.270;2023-02-11T00:55:32;-4.00;24.50
1021;DHT22;499;42.648;23.270;2023-02-11T00:58:00;-4.00;24.20
1021;DHT22;499;42.648;23.270;2023-02-11T01:00:27;-4.00;24.20
1021;DHT22;499;42.648;23.270;2023-02-11T01:02:54;-4.00;24.20
1021;DHT22;499;42.648;23.270;2023-02-11T01:05:23;-4.00;24.20
1021;DHT22;499;42.648;23.270;2023-02-11T01:07:50;-4.00;24.10
1021;DHT22;499;42.648;23.270;2023-02-11T01:10:17;-3.90;24.10
1021;DHT22;499;42.648;23.270;2023-02-11T01:12:44;-4.00;23.90
1021;DHT22;499;42.648;23.270;2023-02-11T01:15:14;-3.70;23.90
1021;DHT22;499;42.648;23.270;2023-02-11T01:17:41;-3.90;23.50
1021;DHT22;499;42.648;23.270;2023-02-11T01:20:14;-4.00;24.00
1021;DHT22;499;42.648;23.270;2023-02-11T01:22:43;-3.90;24.10
1021;DHT22;499;42.648;23.270;2023-02-11T01:25:10;-3.90;23.90
1021;DHT22;499;42.648;23.270;2023-02-11T01:27:37;-3.90;23.70
1021;DHT22;499;42.648;23.270;2023-02-11T01:30:06;-4.00;23.80
1021;DHT22;499;42.648;23.270;2023-02-11T01:32:34;-4.00;23.80
1021;DHT22;499;42.648;23.270;2023-02-11T01:35:01;-4.10;24.00
1021;DHT22;499;42.648;23.270;2023-02-11T01:37:28;-4.10;24.00
1021;DHT22;499;42.648;23.270;2023-02-11T01:40:00;-4.30;24.60
1021;DHT22;499;42.648;23.270;2023-02-11T01:42:28;-4.30;24.30
1021;DHT22;499;42.648;23.270;2023-02-11T01:44:57;-4.30;24.30
1021;DHT22;499;42.648;23.270;2023-02-11T01:47:24;-4.10;24.40
1021;DHT22;499;42.648;23.270;2023-02-11T01:49:54;-4.30;24.20
1021;DHT22;499;42.648;23.270;2023-02-11T01:52:25;-4.30;23.90
1021;DHT22;499;42.648;23.270;2023-02-11T01:54:56;-3.90;24.20
1021;DHT22;499;42.648;23.270;2023-02-11T01:57:46;-4.30;24.30
1021;DHT22;499;42.648;23.270;2023-02-11T02:00:17;-4.30;24.60
1021;DHT22;499;42.648;23.270;2023-02-11T02:02:51;-4.40;24.50
1021;DHT22;499;42.648;23.270;2023-02-11T02:05:25;-4.50;24.50
1021;DHT22;499;42.648;23.270;2023-02-11T02:07:59;-4.60;24.00
1021;DHT22;499;42.648;23.270;2023-02-11T02:10:29;-4.60;24.10
1021;DHT22;499;42.648;23.270;2023-02-11T02:12:58;-4.40;23.60
1021;DHT22;499;42.648;23.270;2023-02-11T02:15:28;-4.50;23.90
1021;DHT22;499;42.648;23.270;2023-02-11T02:18:13;-4.40;24.10
1021;DHT22;499;42.648;23.270;2023-02-11T02:21:17;-4.50;24.10
1021;DHT22;499;42.648;23.270;2023-02-11T02:27:07;-4.40;24.00
1021;DHT22;499;42.648;23.270;2023-02-11T02:30:00;-4.20;23.90
1021;DHT22;499;42.648;23.270;2023-02-11T02:32:40;-4.40;23.70
1021;DHT22;499;42.648;23.270;2023-02-11T02:35:18;-4.40;24.40
1021;DHT22;499;42.648;23.270;2023-02-11T02:37:55;-4.50;23.20
1021;DHT22;499;42.648;23.270;2023-02-11T02:40:26;-4.40;22.90
1021;DHT22;499;42.648;23.270;2023-02-11T02:42:54;-4.40;22.60
1021;DHT22;499;42.648;23.270;2023-02-11T02:45:22;-4.40;22.60
1021;DHT22;499;42.648;23.270;2023-02-11T02:47:50;-4.30;22.70
1021;DHT22;499;42.648;23.270;2023-02-11T02:50:21;-4.30;22.60
1021;DHT22;499;42.648;23.270;2023-02-11T02:52:57;-3.90;22.90
1021;DHT22;499;42.648;23.270;2023-02-11T02:55:38;-4.20;22.70
1021;DHT22;499;42.648;23.270;2023-02-11T02:58:34;-4.00;22.80
1021;DHT22;499;42.648;23.270;2023-02-11T03:01:11;-4.40;22.50
1021;DHT22;499;42.648;23.270;2023-02-11T03:03:47;-4.40;21.70
1021;DHT22;499;42.648;23.270;2023-02-11T03:06:22;-4.30;21.90
1021;DHT22;499;42.648;23.270;2023-02-11T03:08:56;-4.00;22.40
1021;DHT22;499;42.648;23.270;2023-02-11T03:11:25;-3.90;22.90
1021;DHT22;499;42.648;23.270;2023-02-11T03:13:54;-4.30;22.40
1021;DHT22;499;42.648;23.270;2023-02-11T03:16:25;-4.30;22.10
1021;DHT22;499;42.648;23.270;2023-02-11T03:18:58;-4.30;22.10
1021;DHT22;499;42.648;23.270;2023-02-11T03:21:28;-4.30;22.60
1021;DHT22;499;42.648;23.270;2023-02-11T03:24:00;-4.30;22.20
1021;DHT22;499;42.648;23.270;2023-02-11T03:26:33;-4.20;22.00
1021;DHT22;499;42.648;23.270;2023-02-11T03:29:04;-4.20;22.00
1021;DHT22;499;42.648;23.270;2023-02-11T03:31:36;-4.30;21.60
1021;DHT22;499;42.648;23.270;2023-02-11T03:34:10;-4.30;21.20
1021;DHT22;499;42.648;23.270;2023-02-11T03:36:41;-4.30;21.50
1021;DHT22;499;42.648;23.270;2023-02-11T03:39:15;-4.30;20.70
1021;DHT22;499;42.648;23.270;2023-02-11T03:41:44;-3.80;20.70
1021;DHT22;499;42.648;23.270;2023-02-11T03:44:14;-4.20;20.40
1021;DHT22;499;42.648;23.270;2023-02-11T03:46:47;-4.20;20.10
1021;DHT22;499;42.648;23.270;2023-02-11T03:49:20;-4.20;19.80
1021;DHT22;499;42.648;23.270;2023-02-11T03:51:49;-4.20;19.90
1021;DHT22;499;42.648;23.270;2023-02-11T03:54:19;-4.20;20.20
1021;DHT22;499;42.648;23.270;2023-02-11T03:56:53;-4.20;20.10
1021;DHT22;499;42.648;23.270;2023-02-11T03:59:20;-4.10;19.90
1021;DHT22;499;42.648;23.270;2023-02-11T04:01:47;-4.20;19.90
1021;DHT22;499;42.648;23.270;2023-02-11T04:04:17;-4.10;19.10
1021;DHT22;499;42.648;23.270;2023-02-11T04:06:44;-4.10;19.10
1021;DHT22;499;42.648;23.270;2023-02-11T04:09:11;-4.10;19.00
1021;DHT22;499;42.648;23.270;2023-02-11T04:11:38;-4.10;19.10
1021;DHT22;499;42.648;23.270;2023-02-11T04:14:05;-4.10;19.10
1021;DHT22;499;42.648;23.270;2023-02-11T04:16:32;-4.20;19.00
1021;DHT22;499;42.648;23.270;2023-02-11T04:18:59;-4.10;19.10
1021;DHT22;499;42.648;23.270;2023-02-11T04:21:27;-4.20;19.00
1021;DHT22;499;42.648;23.270;2023-02-11T04:23:54;-4.10;19.10
1021;DHT22;499;42.648;23.270;2023-02-11T04:26:21;-4.30;19.50
1021;DHT22;499;42.648;23.270;2023-02-11T04:28:49;-4.30;19.70
1021;DHT22;499;42.648;23.270;2023-02-11T04:31:16;-4.00;20.20
1021;DHT22;499;42.648;23.270;2023-02-11T04:33:43;-4.50;20.00
1021;DHT22;499;42.648;23.270;2023-02-11T04:36:10;-4.60;20.10
1021;DHT22;499;42.648;23.270;2023-02-11T04:38:38;-4.60;20.10
1021;DHT22;499;42.648;23.270;2023-02-11T04:41:05;-4.60;20.40
1021;DHT22;499;42.648;23.270;2023-02-11T04:43:32;-4.70;20.40
1021;DHT22;499;42.648;23.270;2023-02-11T04:45:59;-4.70;20.80
1021;DHT22;499;42.648;23.270;2023-02-11T04:48:27;-4.40;21.20
1021;DHT22;499;42.648;23.270;2023-02-11T04:50:54;-4.80;20.80
1021;DHT22;499;42.648;23.270;2023-02-11T04:53:21;-5.00;21.00
1021;DHT22;499;42.648;23.270;2023-02-11T04:55:49;-5.00;21.50
1021;DHT22;499;42.648;23.270;2023-02-11T04:58:17;-5.00;21.30
1021;DHT22;499;42.648;23.270;2023-02-11T05:00:44;-5.00;21.50
1021;DHT22;499;42.648;23.270;2023-02-11T05:03:11;-4.90;21.70
1021;DHT22;499;42.648;23.270;2023-02-11T05:05:40;-4.90;21.80
1021;DHT22;499;42.648;23.270;2023-02-11T05:08:08;-5.20;22.10
1021;DHT22;499;42.648;23.270;2023-02-11T05:10:36;-5.10;21.80
1021;DHT22;499;42.648;23.270;2023-02-11T05:13:05;-5.20;21.60
1021;DHT22;499;42.648;23.270;2023-02-11T05:15:32;-5.20;22.10
1021;DHT22;499;42.648;23.270;2023-02-11T05:17:59;-5.20;22.10
1021;DHT22;499;42.648;23.270;2023-02-11T05:20:26;-5.20;22.70
1021;DHT22;499;42.648;23.270;2023-02-11T05:22:53;-5.20;22.10
1021;DHT22;499;42.648;23.270;2023-02-11T05:25:20;-5.10;22.20
1021;DHT22;499;42.648;23.270;2023-02-11T05:27:47;-5.10;22.20
1021;DHT22;499;42.648;23.270;2023-02-11T05:30:16;-5.20;22.20
1021;DHT22;499;42.648;23.270;2023-02-11T05:32:43;-5.20;22.20
1021;DHT22;499;42.648;23.270;2023-02-11T05:35:10;-5.20;22.10
1021;DHT22;499;42.648;23.270;2023-02-11T05:37:37;-5.20;22.10
1021;DHT22;499;42.648;23.270;2023-02-11T05:40:05;-5.20;22.10
1021;DHT22;499;42.648;23.270;2023-02-11T05:42:32;-5.10;22.20
1021;DHT22;499;42.648;23.270;2023-02-11T05:44:59;-5.00;22.80
1021;DHT22;499;42.648;23.270;2023-02-11T05:47:28;-5.00;23.20
1021;DHT22;499;42.648;23.270;2023-02-11T05:49:55;-5.00;23.20
1021;DHT22;499;42.648;23.270;2023-02-11T05:52:22;-5.00;23.30
1021;DHT22;499;42.648;23.270;2023-02-11T05:54:49;-4.80;23.40
1021;DHT22;499;42.648;23.270;2023-02-11T05:57:17;-4.70;23.00
1021;DHT22;499;42.648;23.270;2023-02-11T05:59:44;-4.80;22.70
1021;DHT22;499;42.648;23.270;2023-02-11T06:02:11;-4.40;23.10
1021;DHT22;499;42.648;23.270;2023-02-11T06:04:40;-4.70;22.40
1021;DHT22;499;42.648;23.270;2023-02-11T06:07:07;-4.80;22.40
1021;DHT22;499;42.648;23.270;2023-02-11T06:09:35;-4.60;21.90
1021;DHT22;499;42.648;23.270;2023-02-11T06:12:02;-4.80;22.30
1021;DHT22;499;42.648;23.270;2023-02-11T06:14:31;-4.80;22.30
1021;DHT22;499;42.648;23.270;2023-02-11T06:16:58;-4.60;22.50
1021;DHT22;499;42.648;23.270;2023-02-11T06:19:25;-4.50;22.50
1021;DHT22;499;42.648;23.270;2023-02-11T06:21:54;-4.70;22.40
1021;DHT22;499;42.648;23.270;2023-02-11T06:24:22;-4.20;22.70
1021;DHT22;499;42.648;23.270;2023-02-11T06:26:49;-3.90;22.90
1021;DHT22;499;42.648;23.270;2023-02-11T06:29:16;-4.30;22.60
1021;DHT22;499;42.648;23.270;2023-02-11T06:31:43;-4.20;22.80
1021;DHT22;499;42.648;23.270;2023-02-11T06:34:10;-4.10;22.80
1021;DHT22;499;42.648;23.270;2023-02-11T06:36:38;-4.10;22.80
1021;DHT22;499;42.648;23.270;2023-02-11T06:39:07;-3.80;23.00
1021;DHT22;499;42.648;23.270;2023-02-11T06:41:34;-4.40;21.40
1021;DHT22;499;42.648;23.270;2023-02-11T06:44:02;-3.80;21.70
1021;DHT22;499;42.648;23.270;2023-02-11T06:46:29;-4.00;21.40
1021;DHT22;499;42.648;23.270;2023-02-11T06:48:56;-3.80;22.10
1021;DHT22;499;42.648;23.270;2023-02-11T06:51:23;-3.70;21.50
1021;DHT22;499;42.648;23.270;2023-02-11T06:53:50;-3.70;21.30
1021;DHT22;499;42.648;23.270;2023-02-11T06:56:21;-3.60;21.10
1021;DHT22;499;42.648;23.270;2023-02-11T06:58:51;-3.70;21.40
1021;DHT22;499;42.648;23.270;2023-02-11T07:01:20;-3.50;20.60
1021;DHT22;499;42.648;23.270;2023-02-11T07:03:47;-3.50;21.10
1021;DHT22;499;42.648;23.270;2023-02-11T07:06:17;-3.40;21.00
1021;DHT22;499;42.648;23.270;2023-02-11T07:08:45;-3.50;20.40
1021;DHT22;499;42.648;23.270;2023-02-11T07:11:14;-3.40;20.80
1021;DHT22;499;42.648;23.270;2023-02-11T07:13:43;-3.20;21.10
1021;DHT22;499;42.648;23.270;2023-02-11T07:16:12;-3.30;21.20
1021;DHT22;499;42.648;23.270;2023-02-11T07:18:39;-3.30;20.80
1021;DHT22;499;42.648;23.270;2023-02-11T07:21:08;-3.20;20.90
1021;DHT22;499;42.648;23.270;2023-02-11T07:23:36;-3.20;20.90
1021;DHT22;499;42.648;23.270;2023-02-11T07:26:05;-3.10;20.30
1021;DHT22;499;42.648;23.270;2023-02-11T07:28:34;-3.10;19.70
1021;DHT22;499;42.648;23.270;2023-02-11T07:31:06;-3.00;19.70
1021;DHT22;499;42.648;23.270;2023-02-11T07:33:34;-3.00;19.70
1021;DHT22;499;42.648;23.270;2023-02-11T07:36:01;-2.90;19.30
1021;DHT22;499;42.648;23.270;2023-02-11T07:38:29;-2.90;19.00
1021;DHT22;499;42.648;23.270;2023-02-11T07:40:59;-2.90;19.80
1021;DHT22;499;42.648;23.270;2023-02-11T07:43:26;-2.80;19.80
1021;DHT22;499;42.648;23.270;2023-02-11T07:45:53;-2.80;18.90
1021;DHT22;499;42.648;23.270;2023-02-11T07:48:22;-2.80;18.40
1021;DHT22;499;42.648;23.270;2023-02-11T07:50:49;-2.70;17.80
1021;DHT22;499;42.648;23.270;2023-02-11T07:53:16;-2.40;17.80
1021;DHT22;499;42.648;23.270;2023-02-11T07:55:43;-2.60;17.70
1021;DHT22;499;42.648;23.270;2023-02-11T07:58:10;-2.30;17.70
1021;DHT22;499;42.648;23.270;2023-02-11T08:00:37;-2.20;18.50
1021;DHT22;499;42.648;23.270;2023-02-11T08:03:04;-2.50;17.60
1021;DHT22;499;42.648;23.270;2023-02-11T08:05:36;-2.40;18.60
1021;DHT22;499;42.648;23.270;2023-02-11T08:08:03;-2.40;18.40
1021;DHT22;499;42.648;23.270;2023-02-11T08:10:31;-2.40;18.40
1021;DHT22;499;42.648;23.270;2023-02-11T08:12:58;-2.40;18.70
1021;DHT22;499;42.648;23.270;2023-02-11T08:15:25;-2.10;19.80
1021;DHT22;499;42.648;23.270;2023-02-11T08:17:52;-2.30;18.80
1021;DHT22;499;42.648;23.270;2023-02-11T08:20:19;-1.90;19.50
1021;DHT22;499;42.648;23.270;2023-02-11T08:22:47;-2.10;20.10
1021;DHT22;499;42.648;23.270;2023-02-11T08:25:15;-2.30;19.90
1021;DHT22;499;42.648;23.270;2023-02-11T08:27:42;-2.30;20.20
1021;DHT22;499;42.648;23.270;2023-02-11T08:30:10;-2.10;20.30
1021;DHT22;499;42.648;23.270;2023-02-11T08:32:37;-2.00;19.90
1021;DHT22;499;42.648;23.270;2023-02-11T08:35:05;-1.60;20.00
1021;DHT22;499;42.648;23.270;2023-02-11T08:37:33;-1.80;19.60
1021;DHT22;499;42.648;23.270;2023-02-11T08:40:02;-1.40;20.30
1021;DHT22;499;42.648;23.270;2023-02-11T08:42:30;-1.70;19.20
1021;DHT22;499;42.648;23.270;2023-02-11T08:44:57;-1.40;18.70
1021;DHT22;499;42.648;23.270;2023-02-11T08:47:24;-1.60;19.00
1021;DHT22;499;42.648;23.270;2023-02-11T08:49:51;-1.80;19.60
1021;DHT22;499;42.648;23.270;2023-02-11T08:52:18;-1.70;19.50
1021;DHT22;499;42.648;23.270;2023-02-11T08:54:45;-1.80;20.50
1021;DHT22;499;42.648;23.270;2023-02-11T08:57:14;-1.30;20.10
1021;DHT22;499;42.648;23.270;2023-02-11T08:59:41;-1.30;21.60
1021;DHT22;499;42.648;23.270;2023-02-11T09:02:10;-1.70;22.20
1021;DHT22;499;42.648;23.270;2023-02-11T09:04:37;-1.70;22.20
1021;DHT22;499;42.648;23.270;2023-02-11T09:07:05;-1.40;20.70
1021;DHT22;499;42.648;23.270;2023-02-11T09:09:32;-1.60;19.60
1021;DHT22;499;42.648;23.270;2023-02-11T09:11:59;-1.00;19.70
1021;DHT22;499;42.648;23.270;2023-02-11T09:14:27;-1.10;18.40
1021;DHT22;499;42.648;23.270;2023-02-11T09:16:54;-1.30;18.40
1021;DHT22;499;42.648;23.270;2023-02-11T09:19:22;-1.30;18.30
1021;DHT22;499;42.648;23.270;2023-02-11T09:21:49;-1.20;18.80
1021;DHT22;499;42.648;23.270;2023-02-11T09:24:16;-1.10;17.70
1021;DHT22;499;42.648;23.270;2023-02-11T09:26:44;-1.00;18.20
1021;DHT22;499;42.648;23.270;2023-02-11T09:29:11;-1.20;18.80
1021;DHT22;499;42.648;23.270;2023-02-11T09:31:40;-1.20;19.50
1021;DHT22;499;42.648;23.270;2023-02-11T09:34:07;-0.70;20.10
1021;DHT22;499;42.648;23.270;2023-02-11T09:36:36;-0.80;19.70
1021;DHT22;499;42.648;23.270;2023-02-11T09:39:06;-0.60;19.30
1021;DHT22;499;42.648;23.270;2023-02-11T09:41:44;-0.60;18.10
1021;DHT22;499;42.648;23.270;2023-02-11T09:44:18;-0.30;18.90
1021;DHT22;499;42.648;23.270;2023-02-11T09:46:53;-0.30;18.90
1021;DHT22;499;42.648;23.270;2023-02-11T09:49:24;-0.60;19.00
1021;DHT22;499;42.648;23.270;2023-02-11T09:52:00;-0.60;18.60
1021;DHT22;499;42.648;23.270;2023-02-11T09:54:35;-0.60;18.80
1021;DHT22;499;42.648;23.270;2023-02-11T09:57:04;-0.50;19.30
1021;DHT22;499;42.648;23.270;2023-02-11T09:59:31;-0.10;19.00
1021;DHT22;499;42.648;23.270;2023-02-11T10:02:04;-0.10;18.70
1021;DHT22;499;42.648;23.270;2023-02-11T10:05:01;0.00;18.20
1021;DHT22;499;42.648;23.270;2023-02-11T10:07:35;-0.20;16.90
1021;DHT22;499;42.648;23.270;2023-02-11T10:10:12;0.10;16.70
1021;DHT22;499;42.648;23.270;2023-02-11T10:12:58;0.00;17.10
1021;DHT22;499;42.648;23.270;2023-02-11T10:15:33;0.00;16.60
1021;DHT22;499;42.648;23.270;2023-02-11T10:18:25;0.20;17.00
1021;DHT22;499;42.648;23.270;2023-02-11T10:21:05;0.10;16.40
1021;DHT22;499;42.648;23.270;2023-02-11T10:23:38;0.20;16.20
1021;DHT22;499;42.648;23.270;2023-02-11T10:26:11;0.30;15.10
1021;DHT22;499;42.648;23.270;2023-02-11T10:28:42;0.30;14.30
1021;DHT22;499;42.648;23.270;2023-02-11T10:31:12;0.20;14.10
1021;DHT22;499;42.648;23.270;2023-02-11T10:33:45;0.50;13.50
1021;DHT22;499;42.648;23.270;2023-02-11T10:36:15;0.30;14.10
1021;DHT22;499;42.648;23.270;2023-02-11T10:38:43;0.30;14.80
1021;DHT22;499;42.648;23.270;2023-02-11T10:41:15;0.40;15.20
1021;DHT22;499;42.648;23.270;2023-02-11T10:43:43;0.50;15.00
1021;DHT22;499;42.648;23.270;2023-02-11T10:46:15;0.50;14.90
1021;DHT22;499;42.648;23.270;2023-02-11T10:48:48;1.00;14.60
1021;DHT22;499;42.648;23.270;2023-02-11T10:51:22;0.60;14.30
1021;DHT22;499;42.648;23.270;2023-02-11T10:53:50;0.60;14.30
1021;DHT22;499;42.648;23.270;2023-02-11T10:56:40;0.80;14.40
1021;DHT22;499;42.648;23.270;2023-02-11T10:59:16;0.80;14.30
1021;DHT22;499;42.648;23.270;2023-02-11T11:01:49;0.90;13.50
1021;DHT22;499;42.648;23.270;2023-02-11T11:04:38;0.90;14.50
1021;DHT22;499;42.648;23.270;2023-02-11T11:07:12;0.80;14.40
1021;DHT22;499;42.648;23.270;2023-02-11T11:09:45;1.00;14.60
1021;DHT22;499;42.648;23.270;2023-02-11T11:12:24;0.90;14.60
1021;DHT22;499;42.648;23.270;2023-02-11T11:14:54;0.90;14.50
1021;DHT22;499;42.648;23.270;2023-02-11T11:17:21;1.00;14.00
1021;DHT22;499;42.648;23.270;2023-02-11T11:19:49;1.10;14.60
1021;DHT22;499;42.648;23.270;2023-02-11T11:22:20;1.30;14.70
1021;DHT22;499;42.648;23.270;2023-02-11T11:24:48;1.40;14.80
1021;DHT22;499;42.648;23.270;2023-02-11T11:27:22;1.60;14.90
1021;DHT22;499;42.648;23.270;2023-02-11T11:29:52;1.70;14.30
1021;DHT22;499;42.648;23.270;2023-02-11T11:32:23;1.60;14.40
1021;DHT22;499;42.648;23.270;2023-02-11T11:34:54;1.70;13.50
1021;DHT22;499;42.648;23.270;2023-02-11T11:37:25;1.80;13.60
1021;DHT22;499;42.648;23.270;2023-02-11T11:39:56;1.90;12.70
1021;DHT22;499;42.648;23.270;2023-02-11T11:42:26;2.00;13.20
1021;DHT22;499;42.648;23.270;2023-02-11T11:44:58;2.30;13.40
1021;DHT22;499;42.648;23.270;2023-02-11T11:47:30;1.90;13.00
1021;DHT22;499;42.648;23.270;2023-02-11T11:50:21;2.00;14.50
1021;DHT22;499;42.648;23.270;2023-02-11T11:52:53;2.00;13.20
1021;DHT22;499;42.648;23.270;2023-02-11T11:55:25;2.20;12.60
1021;DHT22;499;42.648;23.270;2023-02-11T11:57:52;2.30;12.70
1021;DHT22;499;42.648;23.270;2023-02-11T12:00:35;2.40;13.40
1021;DHT22;499;42.648;23.270;2023-02-11T12:03:23;2.40;12.90
1021;DHT22;499;42.648;23.270;2023-02-11T12:06:16;2.40;12.90
1021;DHT22;499;42.648;23.270;2023-02-11T12:08:55;2.20;13.40
1021;DHT22;499;42.648;23.270;2023-02-11T12:11:31;2.20;13.50
1021;DHT22;499;42.648;23.270;2023-02-11T12:14:09;2.20;13.30
1021;DHT22;499;42.648;23.270;2023-02-11T12:16:47;2.20;12.90
1021;DHT22;499;42.648;23.270;2023-02-11T12:19:38;2.40;12.10
1021;DHT22;499;42.648;23.270;2023-02-11T12:22:11;2.40;11.50
1021;DHT22;499;42.648;23.270;2023-02-11T12:24:59;2.40;11.70
1021;DHT22;499;42.648;23.270;2023-02-11T12:27:49;2.40;11.50
1021;DHT22;499;42.648;23.270;2023-02-11T12:30:37;2.40;11.50
1021;DHT22;499;42.648;23.270;2023-02-11T12:33:12;2.50;12.10
1021;DHT22;499;42.648;23.270;2023-02-11T12:35:49;2.70;11.30
1021;DHT22;499;42.648;23.270;2023-02-11T12:38:35;2.50;11.10
1021;DHT22;499;42.648;23.270;2023-02-11T12:41:24;2.50;11.00
1021;DHT22;499;42.648;23.270;2023-02-11T12:44:15;2.60;11.40
1021;DHT22;499;42.648;23.270;2023-02-11T12:46:49;2.60;10.90
1021;DHT22;499;42.648;23.270;2023-02-11T12:49:29;2.60;10.50
1021;DHT22;499;42.648;23.270;2023-02-11T12:52:10;2.60;10.60
1021;DHT22;499;42.648;23.270;2023-02-11T12:54:46;2.60;11.00
1021;DHT22;499;42.648;23.270;2023-02-11T12:57:20;2.70;10.90
1021;DHT22;499;42.648;23.270;2023-02-11T12:59:54;2.70;9.60
1021;DHT22;499;42.648;23.270;2023-02-11T13:02:35;2.80;10.40
1021;DHT22;499;42.648;23.270;2023-02-11T13:05:18;3.00;10.90
1021;DHT22;499;42.648;23.270;2023-02-11T13:07:49;3.10;10.80
1021;DHT22;499;42.648;23.270;2023-02-11T13:10:26;3.10;10.80
1021;DHT22;499;42.648;23.270;2023-02-11T13:12:56;3.10;10.50
1021;DHT22;499;42.648;23.270;2023-02-11T13:15:47;3.10;10.80
1021;DHT22;499;42.648;23.270;2023-02-11T13:18:34;3.10;10.40
1021;DHT22;499;42.648;23.270;2023-02-11T13:21:25;3.10;10.60
1021;DHT22;499;42.648;23.270;2023-02-11T13:24:00;3.10;10.60
1021;DHT22;499;42.648;23.270;2023-02-11T13:26:38;3.10;10.90
1021;DHT22;499;42.648;23.270;2023-02-11T13:29:20;3.20;10.70
1021;DHT22;499;42.648;23.270;2023-02-11T13:31:53;3.20;11.00
1021;DHT22;499;42.648;23.270;2023-02-11T13:34:26;3.10;10.10
1021;DHT22;499;42.648;23.270;2023-02-11T13:37:19;3.00;10.90
1021;DHT22;499;42.648;23.270;2023-02-11T13:39:58;3.10;10.20
1021;DHT22;499;42.648;23.270;2023-02-11T13:42:26;3.00;10.30
1021;DHT22;499;42.648;23.270;2023-02-11T13:44:54;3.00;9.90
1021;DHT22;499;42.648;23.270;2023-02-11T13:47:26;3.00;10.00
1021;DHT22;499;42.648;23.270;2023-02-11T13:49:55;3.00;9.80
1021;DHT22;499;42.648;23.270;2023-02-11T13:52:27;3.00;10.60
1021;DHT22;499;42.648;23.270;2023-02-11T13:54:56;3.00;10.30
1021;DHT22;499;42.648;23.270;2023-02-11T13:57:35;3.00;9.80
1021;DHT22;499;42.648;23.270;2023-02-11T14:03:36;3.00;9.90
1021;DHT22;499;42.648;23.270;2023-02-11T14:06:26;3.00;10.00
1021;DHT22;499;42.648;23.270;2023-02-11T14:09:34;3.10;10.00
1021;DHT22;499;42.648;23.270;2023-02-11T14:12:34;3.10;9.60
1021;DHT22;499;42.648;23.270;2023-02-11T14:15:20;3.00;10.80
1021;DHT22;499;42.648;23.270;2023-02-11T14:17:48;2.90;10.00
1021;DHT22;499;42.648;23.270;2023-02-11T14:20:39;2.80;9.60
1021;DHT22;499;42.648;23.270;2023-02-11T14:23:20;2.70;10.30
1021;DHT22;499;42.648;23.270;2023-02-11T14:26:08;2.60;11.60
1021;DHT22;499;42.648;23.270;2023-02-11T14:28:39;2.40;13.30
1021;DHT22;499;42.648;23.270;2023-02-11T14:31:13;2.30;14.00
1021;DHT22;499;42.648;23.270;2023-02-11T14:34:02;2.20;12.60
1021;DHT22;499;42.648;23.270;2023-02-11T14:36:46;2.10;14.40
1021;DHT22;499;42.648;23.270;2023-02-11T14:39:22;1.90;15.60
1021;DHT22;499;42.648;23.270;2023-02-11T14:41:53;2.00;15.20
1021;DHT22;499;42.648;23.270;2023-02-11T14:44:23;1.80;15.00
1021;DHT22;499;42.648;23.270;2023-02-11T14:46:51;1.70;15.20
1021;DHT22;499;42.648;23.270;2023-02-11T14:49:24;1.60;15.70
1021;DHT22;499;42.648;23.270;2023-02-11T14:51:54;1.60;15.00
1021;DHT22;499;42.648;23.270;2023-02-11T14:54:24;1.40;15.80
1021;DHT22;499;42.648;23.270;2023-02-11T14:57:07;1.40;15.40
1021;DHT22;499;42.648;23.270;2023-02-11T14:59:35;1.30;15.70
1021;DHT22;499;42.648;23.270;2023-02-11T15:02:14;1.20;15.40
1021;DHT22;499;42.648;23.270;2023-02-11T15:04:45;1.10;15.40
1021;DHT22;499;42.648;23.270;2023-02-11T15:07:12;0.90;16.10
1021;DHT22;499;42.648;23.270;2023-02-11T15:09:41;0.80;16.40
1021;DHT22;499;42.648;23.270;2023-02-11T15:12:15;0.70;15.50
1021;DHT22;499;42.648;23.270;2023-02-11T15:14:46;0.70;14.30
1021;DHT22;499;42.648;23.270;2023-02-11T15:17:26;0.80;13.70
1021;DHT22;499;42.648;23.270;2023-02-11T15:19:56;0.90;12.70
1021;DHT22;499;42.648;23.270;2023-02-11T15:22:27;0.80;12.80
1021;DHT22;499;42.648;23.270;2023-02-11T15:24:59;0.80;13.70
1021;DHT22;499;42.648;23.270;2023-02-11T15:27:37;0.70;13.40
1021;DHT22;499;42.648;23.270;2023-02-11T15:30:27;0.60;13.40
1021;DHT22;499;42.648;23.270;2023-02-11T15:32:55;0.90;14.50
1021;DHT22;499;42.648;23.270;2023-02-11T15:35:26;0.50;14.30
1021;DHT22;499;42.648;23.270;2023-02-11T15:37:54;0.50;14.70
1021;DHT22;499;42.648;23.270;2023-02-11T15:40:23;0.20;15.20
1021;DHT22;499;42.648;23.270;2023-02-11T15:42:55;0.30;15.90
1021;DHT22;499;42.648;23.270;2023-02-11T15:45:24;-0.10;16.00
1021;DHT22;499;42.648;23.270;2023-02-11T15:47:56;-0.10;16.90
1021;DHT22;499;42.648;23.270;2023-02-11T15:50:27;-0.40;17.50
1021;DHT22;499;42.648;23.270;2023-02-11T15:52:55;-0.30;18.10
1021;DHT22;499;42.648;23.270;2023-02-11T15:55:24;-0.30;18.10
1021;DHT22;499;42.648;23.270;2023-02-11T15:57:56;-0.20;17.70
1021;DHT22;499;42.648;23.270;2023-02-11T16:00:27;-0.20;17.90
1021;DHT22;499;42.648;23.270;2023-02-11T16:02:57;-0.50;18.20
1021;DHT22;499;42.648;23.270;2023-02-11T16:05:27;-0.40;17.50
1021;DHT22;499;42.648;23.270;2023-02-11T16:07:55;-0.60;17.40
1021;DHT22;499;42.648;23.270;2023-02-11T16:10:25;-0.40;17.70
1021;DHT22;499;42.648;23.270;2023-02-11T16:13:18;-0.80;17.50
1021;DHT22;499;42.648;23.270;2023-02-11T16:15:50;-0.90;18.40
1021;DHT22;499;42.648;23.270;2023-02-11T16:18:33;-0.90;18.40
1021;DHT22;499;42.648;23.270;2023-02-11T16:21:01;-0.80;17.50
1021;DHT22;499;42.648;23.270;2023-02-11T16:23:32;-0.90;17.00
1021;DHT22;499;42.648;23.270;2023-02-11T16:26:02;-0.50;16.90
1021;DHT22;499;42.648;23.270;2023-02-11T16:28:34;-0.90;16.90
1021;DHT22;499;42.648;23.270;2023-02-11T16:31:03;-0.70;16.00
1021;DHT22;499;42.648;23.270;2023-02-11T16:33:30;-0.80;16.50
1021;DHT22;499;42.648;23.270;2023-02-11T16:35:57;-0.60;16.90
1021;DHT22;499;42.648;23.270;2023-02-11T16:38:27;-0.50;16.60
1021;DHT22;499;42.648;23.270;2023-02-11T16:40:55;-0.80;15.20
1021;DHT22;499;42.648;23.270;2023-02-11T16:43:22;-0.60;13.60